• Join FlightAware (Why Join?)
  • Login
  • US Flag 
11:59PM EDT


 

Airport Tracker/Info


-or-


 

Live Flight TrackerFlight Track Log ✈ EJA929 ✈ 16-Sep-2013 ✈ KBOS - KBWI

Flight Track Log - Related Links

Times and Time Zones

All times are in EDT time to prevent confusion due to time zone crossing. See the EJA929 flight status page for this flight to view local times or setup timezone preferences in your user account.

Time Position Orientation Groundspeed Altitude Reporting Facility
EDT Latitude Longitude Course Direction KTS MPH feet Rate Location/Type
03:08PM 42.3667 -70.9833 90° East 169 194 500  Level KA90
03:08PM 42.3667 -70.9333 90° East 224 258 3,000 2,100 Climbing KA90
03:09PM 42.3833 -70.8333 77° East 252 290 4,100 960 Climbing KA90
03:10PM 42.3667 -70.7500 105° East 255 293 5,100 2,040 Climbing KA90
03:11PM 42.3000 -70.7167 160° South 281 323 8,500 2,880 Climbing KA90
03:13PM 42.2575 -70.8131 239° Southwest 249 287 11,300 2,220 Climbing Boston Center
03:14PM 42.2358 -70.9175 254° West 282 325 13,400 1,320 Climbing Boston Center
03:15PM 42.2128 -71.0553 257° West 333 383 14,000 900 Climbing Boston Center
03:16PM 42.1911 -71.1792 257° West 380 437 15,200 1,860 Climbing Boston Center
03:17PM 42.1678 -71.3308 258° West 380 437 17,800 2,280 Climbing Boston Center
03:18PM 42.1503 -71.4656 260° West 374 430 19,900 1,080 Climbing Boston Center
03:19PM 42.1222 -71.6031 255° West 374 430 20,000 780 Climbing Boston Center
03:20PM 42.0983 -71.7544 258° West 395 455 21,500 1,440 Climbing Boston Center
03:21PM 42.0592 -71.8725 246° West 400 460 23,000 1,560 Climbing Boston Center
03:22PM 42.0014 -71.9986 238° Southwest 400 460 24,700 1,740 Climbing Boston Center
03:23PM 41.9456 -72.1247 239° Southwest 400 460 26,600 1,620 Climbing Boston Center
03:24PM 41.8897 -72.2506 239° Southwest 400 460 28,000 660 Climbing Boston Center
03:25PM 41.8314 -72.3761 238° Southwest 400 460 28,000  Level Boston Center
03:26PM 41.7689 -72.5125 238° Southwest 417 480 28,000  Level Boston Center
03:27PM 41.7083 -72.6486 239° Southwest 428 493 28,000  Level Boston Center
03:28PM 41.6475 -72.7817 239° Southwest 428 493 28,000  Level Boston Center
03:29PM 41.5867 -72.9175 239° Southwest 423 487 28,000  Level Boston Center
03:30PM 41.5275 -73.0500 239° Southwest 423 487 28,000  Level Boston Center
03:31PM 41.4664 -73.1825 238° Southwest 423 487 28,000  Level Boston Center
03:32PM 41.4050 -73.3203 239° Southwest 423 487 28,000  Level Boston Center
03:33PM 41.3392 -73.4547 237° Southwest 429 494 28,000  Level Boston Center
03:34PM 41.2775 -73.5892 239° Southwest 429 494 28,000  Level Boston Center
03:36PM 41.1169 -73.8614 232° Southwest 428 493 28,000  Level New York Center
03:37PM 41.0408 -73.9869 231° Southwest 434 499 28,000 -300 Level New York Center
03:38PM 40.9708 -74.1075 232° Southwest 434 499 27,500 -780 Descending New York Center
03:39PM 40.8942 -74.2297 230° Southwest 434 499 26,500 -780 Descending New York Center
03:40PM 40.8197 -74.3550 232° Southwest 434 499 26,000 -300 Descending New York Center
03:41PM 40.7431 -74.4742 230° Southwest 434 499 26,000  Level New York Center
03:42PM 40.6683 -74.6014 232° Southwest 434 499 26,000 -660 Level New York Center
03:43PM 40.5933 -74.7256 232° Southwest 434 499 24,700 -1,680 Descending New York Center
03:44PM 40.5144 -74.8411 228° Southwest 434 499 22,700 -1,800 Descending New York Center
03:45PM 40.4333 -74.9564 227° Southwest 434 499 21,200 -1,500 Descending New York Center
03:46PM 40.3564 -75.0661 227° Southwest 429 494 19,700 -1,440 Descending New York Center
03:47PM 40.2683 -75.1886 227° Southwest 429 494 18,400 -900 Descending New York Center
03:48PM 40.1892 -75.2978 227° Southwest 429 494 18,000 -240 Descending New York Center
03:49PM 40.1144 -75.3986 226° Southwest 434 499 18,000  Level New York Center
03:50PM 40.0261 -75.5203 227° Southwest 429 494 18,000 -300 Level New York Center
03:51PM 39.9489 -75.6258 226° Southwest 424 488 17,400 -840 Descending New York Center
03:52PM 39.8817 -75.7403 233° Southwest 419 482 16,400 -1,200 Descending New York Center
03:53PM 39.8225 -75.8578 237° Southwest 405 466 15,000 -1,380 Descending New York Center
03:55PM 39.7000 -76.0833 235° Southwest 380 437 12,400 -1,140 Descending Potomac TRACON
03:56PM 39.6500 -76.1833 237° Southwest 341 392 11,700 -1,500 Descending Potomac TRACON
03:57PM 39.6000 -76.2833 237° Southwest 294 338 9,500 -2,280 Descending Potomac TRACON
03:58PM 39.5333 -76.3333 210° Southwest 289 333 7,200 -2,040 Descending Potomac TRACON
03:59PM 39.4833 -76.3833 218° Southwest 281 323 5,600 -1,620 Descending Potomac TRACON
04:00PM 39.4167 -76.4500 218° Southwest 275 316 4,100 -1,200 Descending Potomac TRACON
04:01PM 39.3333 -76.4500 180° South 270 311 3,100 -540 Descending Potomac TRACON
04:02PM 39.2667 -76.4667 191° South 273 314 3,100 -540 Level Potomac TRACON
04:03PM 39.1833 -76.4833 189° South 255 293 2,100 -540 Descending Potomac TRACON
04:04PM 39.1167 -76.5000 191° South 261 300 2,100 -60 Level Potomac TRACON
04:05PM 39.1000 -76.5500 247° West 191 220 2,000 -300 Descending Potomac TRACON
04:06PM 39.1167 -76.6000 293° West 149 171 1,600 -660 Descending Potomac TRACON
04:07PM 39.1500 -76.6333 322° Northwest 127 146 700 -900 Descending Potomac TRACON